createdAt,value
2019-01-15T00:02:10.256Z,0.90
2019-01-15T00:04:41.316Z,0.90
2019-01-15T00:07:13.923Z,1.00
2019-01-15T00:09:44.698Z,1.10
2019-01-15T00:12:16.105Z,0.90
2019-01-15T00:14:44.820Z,0.83
2019-01-15T00:17:17.466Z,0.90
2019-01-15T00:19:47.420Z,0.67
2019-01-15T00:22:18.896Z,1.00
2019-01-15T00:24:50.609Z,1.00
2019-01-15T00:27:21.838Z,0.83
2019-01-15T00:29:50.618Z,0.90
2019-01-15T00:32:19.130Z,1.00
2019-01-15T00:34:47.928Z,0.97
2019-01-15T00:37:16.685Z,1.10
2019-01-15T00:39:48.545Z,0.80
2019-01-15T00:42:17.279Z,1.23
2019-01-15T00:44:48.146Z,0.90
2019-01-15T00:47:20.299Z,0.70
2019-01-15T00:49:52.910Z,1.00
2019-01-15T00:52:22.111Z,1.27
2019-01-15T00:54:51.899Z,0.80
2019-01-15T00:57:21.823Z,0.93
2019-01-15T00:59:52.843Z,1.00
2019-01-15T01:02:23.920Z,0.80
2019-01-15T01:04:52.622Z,0.93
2019-01-15T01:07:23.302Z,0.80
2019-01-15T01:09:51.679Z,0.90
2019-01-15T01:12:22.328Z,1.00
2019-01-15T01:14:52.816Z,0.90
2019-01-15T01:17:24.977Z,1.00
2019-01-15T01:19:58.090Z,0.97
2019-01-15T01:22:29.232Z,0.90
2019-01-15T01:25:00.620Z,0.70
2019-01-15T01:27:29.144Z,1.00
2019-01-15T01:29:58.975Z,0.93
2019-01-15T01:32:27.676Z,0.80
2019-01-15T01:34:58.308Z,0.90
2019-01-15T01:37:28.775Z,0.80
2019-01-15T01:39:57.196Z,1.00
2019-01-15T01:42:29.515Z,1.00
2019-01-15T01:44:58.058Z,1.10
2019-01-15T01:47:27.807Z,0.83
2019-01-15T01:49:56.540Z,1.00
2019-01-15T01:52:27.554Z,0.80
2019-01-15T01:54:55.971Z,1.03
2019-01-15T01:57:27.795Z,0.80
2019-01-15T01:59:57.276Z,0.80
2019-01-15T02:02:25.967Z,0.87
2019-01-15T02:04:58.227Z,1.00
2019-01-15T02:07:30.200Z,1.10
2019-01-15T02:10:00.899Z,1.07
2019-01-15T02:12:36.676Z,0.90
2019-01-15T02:15:00.593Z,0.77
2019-01-15T02:17:33.279Z,1.00
2019-01-15T02:20:02.937Z,1.03
2019-01-15T02:22:33.159Z,0.70
2019-01-15T02:25:04.336Z,0.90
2019-01-15T02:27:38.309Z,0.93
2019-01-15T02:30:16.653Z,0.90
2019-01-15T02:32:48.061Z,0.87
2019-01-15T02:35:17.842Z,0.83
2019-01-15T02:37:49.328Z,0.90
2019-01-15T02:40:19.369Z,1.10
2019-01-15T02:42:47.844Z,0.90
2019-01-15T02:45:18.771Z,0.80
2019-01-15T02:47:48.670Z,1.20
2019-01-15T02:50:22.356Z,0.70
2019-01-15T02:52:52.562Z,0.90
2019-01-15T02:55:24.272Z,1.03
2019-01-15T02:57:54.751Z,1.00
2019-01-15T03:00:25.278Z,1.10
2019-01-15T03:02:53.724Z,1.00
2019-01-15T03:05:23.720Z,1.00
2019-01-15T03:07:53.709Z,0.97
2019-01-15T03:10:24.922Z,0.80
2019-01-15T03:12:57.032Z,0.80
2019-01-15T03:15:29.380Z,1.00
2019-01-15T03:18:04.216Z,0.73
2019-01-15T03:20:36.291Z,0.80
2019-01-15T03:23:07.984Z,1.10
2019-01-15T03:25:40.187Z,0.93
2019-01-15T03:28:16.187Z,1.30
2019-01-15T03:30:47.941Z,1.03
2019-01-15T03:33:16.887Z,0.80
2019-01-15T03:35:48.360Z,0.70
2019-01-15T03:38:20.828Z,0.93
2019-01-15T03:40:49.814Z,0.97
2019-01-15T03:43:20.128Z,1.00
2019-01-15T03:45:49.891Z,1.10
2019-01-15T03:48:20.051Z,1.10
2019-01-15T03:50:48.522Z,1.00
2019-01-15T03:53:18.162Z,1.33
2019-01-15T03:55:49.783Z,1.00
2019-01-15T03:58:21.334Z,0.70
2019-01-15T04:00:49.927Z,0.80
2019-01-15T04:03:19.496Z,1.00
2019-01-15T04:05:49.593Z,1.10
2019-01-15T04:08:20.222Z,0.93
2019-01-15T04:10:51.379Z,1.00
2019-01-15T04:13:22.036Z,1.00
2019-01-15T04:15:55.166Z,1.00
2019-01-15T04:18:28.094Z,0.97
2019-01-15T04:20:58.432Z,1.07
2019-01-15T04:23:28.268Z,1.00
2019-01-15T04:25:59.300Z,0.90
2019-01-15T04:28:30.889Z,0.93
2019-01-15T04:31:03.775Z,0.97
2019-01-15T04:33:34.985Z,1.00
2019-01-15T04:36:04.916Z,1.07
2019-01-15T04:38:36.655Z,1.07
2019-01-15T04:41:08.662Z,0.97
2019-01-15T04:43:36.758Z,1.10
2019-01-15T04:46:08.074Z,1.10
2019-01-15T04:48:38.308Z,1.00
2019-01-15T04:51:08.301Z,0.90
2019-01-15T04:53:38.434Z,1.07
2019-01-15T04:56:07.103Z,1.23
2019-01-15T04:58:36.583Z,1.03
2019-01-15T05:01:07.099Z,0.80
2019-01-15T05:03:35.664Z,1.30
2019-01-15T05:06:04.364Z,0.90
2019-01-15T05:08:33.007Z,1.17
2019-01-15T05:11:03.631Z,1.10
2019-01-15T05:13:35.816Z,0.80
2019-01-15T05:16:06.827Z,0.80
2019-01-15T05:18:36.561Z,1.10
2019-01-15T05:21:05.223Z,1.00
2019-01-15T05:23:36.689Z,1.10
2019-01-15T05:26:05.375Z,1.00
2019-01-15T05:28:36.344Z,1.07
2019-01-15T05:31:05.691Z,1.10
2019-01-15T05:33:34.097Z,1.00
2019-01-15T05:36:02.570Z,1.00
2019-01-15T05:38:31.218Z,0.80
2019-01-15T05:41:00.213Z,1.00
2019-01-15T05:43:35.519Z,0.97
2019-01-15T05:46:02.228Z,0.90
2019-01-15T05:48:34.724Z,1.07
2019-01-15T05:51:07.787Z,1.30
2019-01-15T05:53:39.063Z,1.10
2019-01-15T05:56:10.239Z,0.93
2019-01-15T05:58:38.882Z,0.90
2019-01-15T06:01:10.619Z,1.00
2019-01-15T06:03:40.339Z,1.10
2019-01-15T06:06:08.772Z,0.83
2019-01-15T06:08:37.190Z,0.90
2019-01-15T06:11:05.629Z,1.10
2019-01-15T06:13:34.552Z,1.20
2019-01-15T06:16:04.937Z,1.10
2019-01-15T06:18:33.651Z,1.07
2019-01-15T06:21:03.562Z,0.93
2019-01-15T06:23:34.717Z,0.90
2019-01-15T06:26:04.780Z,1.30
2019-01-15T06:28:34.821Z,1.20
2019-01-15T06:31:07.804Z,1.43
2019-01-15T06:33:37.954Z,1.10
2019-01-15T06:36:06.621Z,1.20
2019-01-15T06:38:36.996Z,1.10
2019-01-15T06:41:06.987Z,1.10
2019-01-15T06:43:35.954Z,0.90
2019-01-15T06:46:05.857Z,0.90
2019-01-15T06:48:36.221Z,0.80
2019-01-15T06:51:05.203Z,1.00
2019-01-15T06:53:37.572Z,1.10
2019-01-15T06:56:06.789Z,0.97
2019-01-15T06:58:35.233Z,0.90
2019-01-15T07:01:03.926Z,0.80
2019-01-15T07:03:35.525Z,0.90
2019-01-15T07:06:05.335Z,1.20
2019-01-15T07:08:36.632Z,0.90
2019-01-15T07:11:05.043Z,1.00
2019-01-15T07:13:34.255Z,1.20
2019-01-15T07:16:06.070Z,0.90
2019-01-15T07:18:35.956Z,0.80
2019-01-15T07:21:07.483Z,1.10
2019-01-15T07:23:37.646Z,1.07
2019-01-15T07:26:06.131Z,1.10
2019-01-15T07:28:35.263Z,1.30
2019-01-15T07:31:04.071Z,1.20
2019-01-15T07:33:32.500Z,0.80
2019-01-15T07:36:00.908Z,1.10
2019-01-15T07:38:32.803Z,1.20
2019-01-15T07:41:01.218Z,1.00
2019-01-15T07:43:32.088Z,0.93
2019-01-15T07:46:01.177Z,0.97
2019-01-15T07:48:29.609Z,1.30
2019-01-15T07:51:08.594Z,1.10
2019-01-15T07:53:38.655Z,1.10
2019-01-15T07:56:07.413Z,1.20
2019-01-15T07:58:37.317Z,0.90
2019-01-15T08:01:07.495Z,1.07
2019-01-15T08:03:37.643Z,1.13
2019-01-15T08:06:06.849Z,0.90
2019-01-15T08:08:35.262Z,1.03
2019-01-15T08:11:04.168Z,1.10
2019-01-15T08:13:34.136Z,0.90
2019-01-15T08:16:05.258Z,1.00
2019-01-15T08:18:37.078Z,1.03
2019-01-15T08:21:09.221Z,1.10
2019-01-15T08:23:43.421Z,1.03
2019-01-15T08:26:15.444Z,1.27
2019-01-15T08:28:45.215Z,0.97
2019-01-15T08:31:14.562Z,1.20
2019-01-15T08:33:46.217Z,0.97
2019-01-15T08:36:14.919Z,0.90
2019-01-15T08:38:43.774Z,1.37
2019-01-15T08:41:15.428Z,0.80
2019-01-15T08:43:46.311Z,1.13
2019-01-15T08:46:15.990Z,1.17
2019-01-15T08:48:47.746Z,1.13
2019-01-15T08:51:17.480Z,1.03
2019-01-15T08:53:46.415Z,1.40
2019-01-15T08:56:15.088Z,1.17
2019-01-15T08:58:44.377Z,1.00
2019-01-15T09:01:17.497Z,0.97
2019-01-15T09:03:47.040Z,1.00
2019-01-15T09:06:20.034Z,1.00
2019-01-15T09:08:49.997Z,0.93
2019-01-15T09:11:19.365Z,0.90
2019-01-15T09:13:50.801Z,1.10
2019-01-15T09:16:19.070Z,0.93
2019-01-15T09:18:49.498Z,0.90
2019-01-15T09:21:19.566Z,0.97
2019-01-15T09:23:49.788Z,1.00
2019-01-15T09:26:19.972Z,1.00
2019-01-15T09:28:48.966Z,1.20
2019-01-15T09:31:19.223Z,1.07
2019-01-15T09:34:05.035Z,1.10
2019-01-15T09:36:35.477Z,1.30
2019-01-15T09:39:10.255Z,0.90
2019-01-15T09:41:45.339Z,1.00
2019-01-15T09:44:14.027Z,1.30
2019-01-15T09:46:47.362Z,0.97
2019-01-15T09:49:18.879Z,0.80
2019-01-15T09:51:50.860Z,1.10
2019-01-15T09:54:22.213Z,1.10
2019-01-15T09:56:51.075Z,1.00
2019-01-15T09:59:21.535Z,1.00
2019-01-15T10:01:57.347Z,1.13
2019-01-15T10:04:27.780Z,1.07
2019-01-15T10:06:57.388Z,1.17
2019-01-15T10:09:35.373Z,0.83
2019-01-15T10:12:06.539Z,1.10
2019-01-15T10:14:41.381Z,0.97
2019-01-15T10:17:08.757Z,1.23
2019-01-15T10:19:37.236Z,1.30
2019-01-15T10:22:06.548Z,0.83
2019-01-15T10:24:37.659Z,1.40
2019-01-15T10:27:11.551Z,1.30
2019-01-15T10:29:40.074Z,1.10
2019-01-15T10:32:12.031Z,1.20
2019-01-15T10:34:42.249Z,1.30
2019-01-15T10:37:13.577Z,1.47
2019-01-15T10:39:44.147Z,1.10
2019-01-15T10:42:17.127Z,1.10
2019-01-15T10:44:48.789Z,1.10
2019-01-15T10:47:20.045Z,0.90
2019-01-15T10:49:48.563Z,1.00
2019-01-15T10:52:19.743Z,0.93
2019-01-15T10:54:49.395Z,1.30
2019-01-15T10:57:20.209Z,1.43
2019-01-15T10:59:50.454Z,0.90
2019-01-15T11:02:22.423Z,1.07
2019-01-15T11:04:54.730Z,1.27
2019-01-15T11:07:24.954Z,1.20
2019-01-15T11:09:56.567Z,1.20
2019-01-15T11:12:26.132Z,1.20
2019-01-15T11:14:56.312Z,1.00
2019-01-15T11:17:26.545Z,1.50
2019-01-15T11:19:56.378Z,1.30
2019-01-15T11:22:27.722Z,1.20
2019-01-15T11:24:56.401Z,1.20
2019-01-15T11:27:26.462Z,1.30
2019-01-15T11:29:54.868Z,1.20
2019-01-15T11:32:25.981Z,1.10
2019-01-15T11:34:57.980Z,1.37
2019-01-15T11:37:26.119Z,1.10
2019-01-15T11:39:54.529Z,1.03
2019-01-15T11:42:24.836Z,1.10
2019-01-15T11:44:53.576Z,1.30
2019-01-15T11:47:23.452Z,1.03
2019-01-15T11:49:55.432Z,1.00
2019-01-15T11:52:26.526Z,1.10
2019-01-15T11:54:55.247Z,1.10
2019-01-15T11:57:26.892Z,0.80
2019-01-15T11:59:58.474Z,1.00
2019-01-15T12:02:28.807Z,1.10
2019-01-15T12:05:18.963Z,1.20
2019-01-15T12:07:57.785Z,1.20
2019-01-15T12:10:41.497Z,1.30
2019-01-15T12:13:27.049Z,1.10
2019-01-15T12:16:17.649Z,1.10
2019-01-15T12:18:50.815Z,1.20
2019-01-15T12:21:30.243Z,1.40
2019-01-15T12:24:05.300Z,1.37
2019-01-15T12:26:53.415Z,1.10
2019-01-15T12:29:41.347Z,1.20
2019-01-15T12:32:14.455Z,1.10
2019-01-15T12:34:56.829Z,1.27
2019-01-15T12:37:30.754Z,1.30
2019-01-15T12:40:13.832Z,0.93
2019-01-15T12:42:44.462Z,1.30
2019-01-15T12:45:22.923Z,1.17
2019-01-15T12:48:00.070Z,1.10
2019-01-15T12:50:48.608Z,1.30
2019-01-15T12:53:20.267Z,1.07
2019-01-15T12:56:00.846Z,1.30
2019-01-15T12:58:34.206Z,1.30
2019-01-15T13:01:08.229Z,1.20
2019-01-15T13:03:41.999Z,1.10
2019-01-15T13:06:32.971Z,1.10
2019-01-15T13:09:12.216Z,1.30
2019-01-15T13:11:58.943Z,1.37
2019-01-15T13:14:39.500Z,1.00
2019-01-15T13:17:28.736Z,1.17
2019-01-15T13:20:00.226Z,1.20
2019-01-15T13:22:32.753Z,1.40
2019-01-15T13:25:19.570Z,1.30
2019-01-15T13:28:07.769Z,1.20
2019-01-15T13:30:54.508Z,1.37
2019-01-15T13:33:43.465Z,1.10
2019-01-15T13:36:18.179Z,1.13
2019-01-15T13:39:04.339Z,1.37
2019-01-15T13:41:34.983Z,1.33
2019-01-15T13:44:13.705Z,1.17
2019-01-15T13:46:49.359Z,1.30
2019-01-15T13:49:37.959Z,230.37
2019-01-15T13:52:11.548Z,260.57
2019-01-15T13:54:50.664Z,184.70
2019-01-15T13:57:24.843Z,95.40
2019-01-15T14:00:06.033Z,44.63
2019-01-15T14:02:42.781Z,26.07
2019-01-15T14:05:32.357Z,24.90
2019-01-15T14:08:18.815Z,17.77
2019-01-15T14:11:07.351Z,16.33
2019-01-15T14:13:44.335Z,14.57
2019-01-15T14:16:28.138Z,14.60
2019-01-15T14:19:15.012Z,13.17
2019-01-15T14:21:54.564Z,12.07
2019-01-15T14:24:36.096Z,10.57
2019-01-15T14:27:23.298Z,12.37
2019-01-15T14:30:05.076Z,10.37
2019-01-15T14:32:40.339Z,8.40
2019-01-15T14:35:19.613Z,8.20
2019-01-15T14:37:55.642Z,7.93
2019-01-15T14:40:41.731Z,8.43
2019-01-15T14:43:11.783Z,24.10
2019-01-15T14:45:44.874Z,8.10
2019-01-15T14:48:19.564Z,7.10
2019-01-15T14:50:50.183Z,7.30
2019-01-15T14:53:25.245Z,6.70
2019-01-15T14:56:12.365Z,6.07
2019-01-15T14:58:42.438Z,5.73
2019-01-15T15:01:12.502Z,5.30
2019-01-15T15:03:42.575Z,6.07
2019-01-15T15:06:20.099Z,5.17
2019-01-15T15:08:59.235Z,4.67
2019-01-15T15:11:32.451Z,5.33
2019-01-15T15:14:17.581Z,5.53
2019-01-15T15:16:56.417Z,5.70
2019-01-15T15:19:27.528Z,5.20
2019-01-15T15:22:13.547Z,4.87
2019-01-15T15:24:56.004Z,5.17
2019-01-15T15:27:26.882Z,4.60
2019-01-15T15:30:06.067Z,4.47
2019-01-15T15:32:43.191Z,4.00
2019-01-15T15:35:14.904Z,4.57
2019-01-15T15:37:46.572Z,4.03
2019-01-15T15:40:19.292Z,4.17
2019-01-15T15:42:49.339Z,4.00
2019-01-15T15:45:22.191Z,4.03
2019-01-15T15:47:58.048Z,4.40
2019-01-15T15:50:46.116Z,4.07
2019-01-15T15:53:34.179Z,4.47
2019-01-15T15:56:08.456Z,4.07
2019-01-15T15:58:43.644Z,4.40
2019-01-15T16:01:13.724Z,4.10
2019-01-15T16:03:59.355Z,3.83
2019-01-15T16:06:31.992Z,3.90
2019-01-15T16:09:02.059Z,3.87
2019-01-15T16:11:38.508Z,3.60
2019-01-15T16:17:29.227Z,3.97
2019-01-15T16:20:02.619Z,3.70
2019-01-15T16:22:48.834Z,3.40
2019-01-15T16:25:21.692Z,3.60
2019-01-15T16:28:02.915Z,3.53
2019-01-15T16:30:42.197Z,3.73
2019-01-15T16:33:12.281Z,3.47
2019-01-15T16:35:44.839Z,3.53
2019-01-15T16:41:08.034Z,3.33
2019-01-15T16:43:55.081Z,3.40
2019-01-15T16:46:33.954Z,3.70
2019-01-15T16:49:15.666Z,3.00
2019-01-15T16:51:49.631Z,3.17
2019-01-15T16:54:34.821Z,2.90
2019-01-15T16:57:19.645Z,2.87
2019-01-15T17:00:05.652Z,3.47
2019-01-15T17:02:42.159Z,3.50
2019-01-15T17:05:27.458Z,2.97
2019-01-15T17:08:14.347Z,3.37
2019-01-15T17:10:46.315Z,3.07
2019-01-15T17:13:25.383Z,3.60
2019-01-15T17:16:12.970Z,2.80
2019-01-15T17:18:44.775Z,3.20
2019-01-15T17:21:32.673Z,2.60
2019-01-15T17:24:05.466Z,3.03
2019-01-15T17:26:47.609Z,3.20
2019-01-15T17:29:26.756Z,2.80
2019-01-15T17:32:16.245Z,2.63
2019-01-15T17:34:48.595Z,2.90
2019-01-15T17:37:21.633Z,2.63
2019-01-15T17:39:57.443Z,3.77
2019-01-15T17:42:32.923Z,2.77
2019-01-15T17:45:22.727Z,2.80
2019-01-15T17:48:06.199Z,2.83
2019-01-15T17:50:39.326Z,2.93
2019-01-15T17:53:30.552Z,3.13
2019-01-15T17:56:10.400Z,2.70
2019-01-15T17:58:58.590Z,2.80
2019-01-15T18:01:47.100Z,2.63
2019-01-15T18:04:14.383Z,2.80
2019-01-15T18:07:04.155Z,2.43
2019-01-15T18:09:34.460Z,2.80
2019-01-15T18:12:21.345Z,2.40
2019-01-15T18:15:07.912Z,2.90
2019-01-15T18:17:56.190Z,2.43
2019-01-15T18:20:44.049Z,2.60
2019-01-15T18:23:32.441Z,2.47
2019-01-15T18:26:21.605Z,3.00
2019-01-15T18:29:07.690Z,2.47
2019-01-15T18:31:55.576Z,2.67
2019-01-15T18:34:41.530Z,2.60
2019-01-15T18:37:16.153Z,2.60
2019-01-15T18:39:47.994Z,2.70
2019-01-15T18:42:30.155Z,2.20
2019-01-15T18:45:05.748Z,2.63
2019-01-15T18:47:53.612Z,2.40
2019-01-15T18:50:40.508Z,2.33
2019-01-15T18:53:31.016Z,2.47
2019-01-15T18:56:16.322Z,2.40
2019-01-15T18:58:55.069Z,2.63
2019-01-15T19:01:41.376Z,2.87
2019-01-15T19:04:29.615Z,2.27
2019-01-15T19:07:08.211Z,2.30
2019-01-15T19:09:40.842Z,2.20
2019-01-15T19:12:26.056Z,2.27
2019-01-15T19:15:10.771Z,2.00
2019-01-15T19:17:50.117Z,1.97
2019-01-15T19:20:25.534Z,2.50
2019-01-15T19:23:07.316Z,2.20
2019-01-15T19:25:55.277Z,2.67
2019-01-15T19:28:37.035Z,2.23
2019-01-15T19:31:07.034Z,2.60
2019-01-15T19:33:43.184Z,2.33
2019-01-15T19:36:13.653Z,2.03
2019-01-15T19:39:03.240Z,2.20
2019-01-15T19:41:50.105Z,2.30
2019-01-15T19:44:29.956Z,2.57
2019-01-15T19:47:18.371Z,1.93
2019-01-15T19:49:48.694Z,1.97
2019-01-15T19:52:22.317Z,2.20
2019-01-15T19:55:00.201Z,2.27
2019-01-15T19:57:33.251Z,2.40
2019-01-15T20:00:13.351Z,1.70
2019-01-15T20:02:45.695Z,2.00
2019-01-15T20:05:15.736Z,2.13
2019-01-15T20:08:04.690Z,2.23
2019-01-15T20:10:34.742Z,2.10
2019-01-15T20:13:08.649Z,2.27
2019-01-15T20:15:41.900Z,2.33
2019-01-15T20:18:31.885Z,1.83
2019-01-15T20:21:13.080Z,2.40
2019-01-15T20:23:48.067Z,2.37
2019-01-15T20:26:34.689Z,1.93
2019-01-15T20:29:21.189Z,2.27
2019-01-15T20:31:58.928Z,2.33
2019-01-15T20:34:35.033Z,2.00
2019-01-15T20:37:09.860Z,2.53
2019-01-15T20:39:59.749Z,2.30
2019-01-15T20:45:39.155Z,2.00
2019-01-15T20:48:09.599Z,2.03
2019-01-15T20:51:03.323Z,2.17
2019-01-15T20:53:29.811Z,1.73
2019-01-15T20:56:03.172Z,2.00
2019-01-15T20:58:43.643Z,1.83
2019-01-15T21:01:33.436Z,2.23
2019-01-15T21:04:20.103Z,2.10
2019-01-15T21:07:00.527Z,2.00
2019-01-15T21:09:50.299Z,1.87
2019-01-15T21:12:35.562Z,1.80
2019-01-15T21:15:26.163Z,2.10
2019-01-15T21:18:03.973Z,1.87
2019-01-15T21:20:50.667Z,2.10
2019-01-15T21:23:22.795Z,2.10
2019-01-15T21:26:12.702Z,2.00
2019-01-15T21:28:50.851Z,2.03
2019-01-15T21:31:40.557Z,1.80
2019-01-15T21:34:15.175Z,1.97
2019-01-15T21:36:54.940Z,2.10
2019-01-15T21:39:36.335Z,1.60
2019-01-15T21:42:09.725Z,2.17
2019-01-15T21:44:43.822Z,2.20
2019-01-15T21:47:21.443Z,2.00
2019-01-15T21:50:07.083Z,2.00
2019-01-15T21:52:47.503Z,1.90
2019-01-15T21:55:28.815Z,1.73
2019-01-15T21:57:59.485Z,1.90
2019-01-15T22:00:49.026Z,1.70
2019-01-15T22:03:20.850Z,1.70
2019-01-15T22:05:50.805Z,1.77
2019-01-15T22:08:27.795Z,2.23
2019-01-15T22:11:15.892Z,2.00
2019-01-15T22:14:01.044Z,2.00
2019-01-15T22:16:35.069Z,1.80
2019-01-15T22:19:15.144Z,2.07
2019-01-15T22:21:48.174Z,1.73
2019-01-15T22:24:34.091Z,2.17
2019-01-15T22:27:08.261Z,1.90
2019-01-15T22:29:42.989Z,1.97
2019-01-15T22:32:19.527Z,1.83
2019-01-15T22:35:08.859Z,2.03
2019-01-15T22:37:41.522Z,1.83
2019-01-15T22:40:16.568Z,1.80
2019-01-15T22:42:54.376Z,1.90
2019-01-15T22:45:36.185Z,1.80
2019-01-15T22:48:25.606Z,1.50
2019-01-15T22:51:15.198Z,1.70
2019-01-15T22:53:48.616Z,1.97
2019-01-15T22:56:35.246Z,1.70
2019-01-15T22:59:23.059Z,2.13
2019-01-15T23:02:09.857Z,1.80
2019-01-15T23:04:58.233Z,1.77
2019-01-15T23:07:35.042Z,1.43
2019-01-15T23:10:10.494Z,1.60
2019-01-15T23:12:58.035Z,1.60
2019-01-15T23:15:40.760Z,1.43
2019-01-15T23:18:10.802Z,1.53
2019-01-15T23:20:55.828Z,1.90
2019-01-15T23:23:32.591Z,1.50
2019-01-15T23:26:18.544Z,1.70
2019-01-15T23:29:06.093Z,1.60
2019-01-15T23:31:37.716Z,1.63
2019-01-15T23:34:19.734Z,1.50
2019-01-15T23:36:57.518Z,1.43
2019-01-15T23:39:53.124Z,1.60
2019-01-15T23:42:30.395Z,1.60
2019-01-15T23:45:04.178Z,1.60
2019-01-15T23:47:37.075Z,1.70
2019-01-15T23:50:25.555Z,1.67
2019-01-15T23:53:07.730Z,1.43
2019-01-15T23:55:54.003Z,1.90
2019-01-15T23:58:28.262Z,1.50
